createdAt,value
2017-09-21T00:02:01.347Z,12.40
2017-09-21T00:04:28.845Z,15.40
2017-09-21T00:06:56.761Z,14.60
2017-09-21T00:09:24.267Z,15.52
2017-09-21T00:11:51.790Z,12.25
2017-09-21T00:14:19.331Z,13.40
2017-09-21T00:16:47.237Z,16.52
2017-09-21T00:19:14.743Z,14.02
2017-09-21T00:21:42.254Z,13.52
2017-09-21T00:24:10.167Z,14.35
2017-09-21T00:26:37.679Z,15.15
2017-09-21T00:29:05.215Z,14.65
2017-09-21T00:31:32.730Z,14.80
2017-09-21T00:34:00.262Z,15.55
2017-09-21T00:36:27.829Z,16.50
2017-09-21T00:38:55.783Z,16.02
2017-09-21T00:41:23.685Z,17.67
2017-09-21T00:43:51.201Z,15.57
2017-09-21T00:46:18.725Z,15.50
2017-09-21T00:48:46.637Z,18.60
2017-09-21T00:51:14.295Z,20.00
2017-09-21T00:53:41.802Z,21.50
2017-09-21T00:56:09.502Z,16.40
2017-09-21T00:58:37.416Z,14.60
2017-09-21T01:01:04.960Z,15.00
2017-09-21T01:03:32.487Z,14.45
2017-09-21T01:05:59.986Z,18.73
2017-09-21T01:08:27.509Z,19.92
2017-09-21T01:10:55.015Z,22.27
2017-09-21T01:13:22.527Z,20.90
2017-09-21T01:15:50.439Z,22.20
2017-09-21T01:18:17.965Z,19.67
2017-09-21T01:20:45.464Z,19.02
2017-09-21T01:23:13.392Z,17.30
2017-09-21T01:25:40.903Z,18.62
2017-09-21T01:28:08.398Z,15.63
2017-09-21T01:30:36.088Z,17.40
2017-09-21T01:33:03.589Z,16.58
2017-09-21T01:35:31.514Z,16.08
2017-09-21T01:37:59.029Z,16.52
2017-09-21T01:40:26.551Z,16.27
2017-09-21T01:42:54.054Z,17.80
2017-09-21T01:45:21.573Z,17.12
2017-09-21T01:47:49.070Z,17.73
2017-09-21T01:50:16.571Z,16.40
2017-09-21T01:52:44.099Z,16.62
2017-09-21T01:55:11.608Z,15.65
2017-09-21T01:57:39.129Z,17.45
2017-09-21T02:00:06.627Z,15.32
2017-09-21T02:02:34.149Z,14.10
2017-09-21T02:05:01.662Z,14.73
2017-09-21T02:07:29.571Z,15.27
2017-09-21T02:09:57.099Z,15.55
2017-09-21T02:12:24.606Z,14.65
2017-09-21T02:14:52.534Z,14.90
2017-09-21T02:17:20.033Z,14.32
2017-09-21T02:19:47.575Z,14.60
2017-09-21T02:22:15.078Z,14.85
2017-09-21T02:24:42.570Z,14.80
2017-09-21T02:27:10.093Z,15.27
2017-09-21T02:29:37.594Z,15.15
2017-09-21T02:32:05.119Z,15.98
2017-09-21T02:34:32.622Z,12.50
2017-09-21T02:37:00.578Z,11.85
2017-09-21T02:39:28.094Z,12.07
2017-09-21T02:41:55.610Z,13.60
2017-09-21T02:44:23.141Z,12.75
2017-09-21T02:46:50.638Z,13.18
2017-09-21T02:49:18.554Z,13.10
2017-09-21T02:51:46.105Z,12.90
2017-09-21T02:54:13.651Z,15.05
2017-09-21T02:56:41.158Z,14.95
2017-09-21T02:59:08.683Z,17.05
2017-09-21T03:01:36.195Z,17.33
2017-09-21T03:04:03.722Z,16.98
2017-09-21T03:06:31.233Z,16.90
2017-09-21T03:08:58.733Z,17.65
2017-09-21T03:11:26.257Z,19.62
2017-09-21T03:13:53.778Z,20.50
2017-09-21T03:16:21.297Z,20.67
2017-09-21T03:18:48.801Z,20.05
2017-09-21T03:21:16.346Z,18.50
2017-09-21T03:23:44.259Z,18.95
2017-09-21T03:26:11.783Z,16.95
2017-09-21T03:28:39.289Z,16.23
2017-09-21T03:31:07.203Z,15.93
2017-09-21T03:33:34.719Z,17.15
2017-09-21T03:36:02.218Z,16.20
2017-09-21T03:38:29.737Z,17.20
2017-09-21T03:40:57.233Z,18.35
2017-09-21T03:43:25.148Z,17.37
2017-09-21T03:45:52.645Z,18.48
2017-09-21T03:48:20.177Z,17.95
2017-09-21T03:50:47.696Z,17.50
2017-09-21T03:53:15.609Z,17.65
2017-09-21T03:55:43.111Z,17.58
2017-09-21T03:58:10.636Z,16.73
2017-09-21T04:00:38.533Z,19.05
2017-09-21T04:03:06.025Z,18.00
2017-09-21T04:05:33.535Z,17.98
2017-09-21T04:08:01.054Z,16.12
2017-09-21T04:10:29.821Z,20.00
2017-09-21T04:12:57.362Z,18.48
2017-09-21T04:15:24.903Z,19.35
2017-09-21T04:17:52.448Z,18.55
2017-09-21T04:20:20.019Z,17.60
2017-09-21T04:22:47.555Z,17.15
2017-09-21T04:25:15.100Z,17.45
2017-09-21T04:27:42.666Z,17.67
2017-09-21T04:30:10.208Z,16.08
2017-09-21T04:32:37.749Z,17.37
2017-09-21T04:35:05.308Z,16.87
2017-09-21T04:37:32.890Z,16.30
2017-09-21T04:40:00.424Z,18.12
2017-09-21T04:42:28.457Z,18.67
2017-09-21T04:44:56.414Z,18.30
2017-09-21T04:47:24.001Z,17.70
2017-09-21T04:49:51.597Z,17.50
2017-09-21T04:52:19.148Z,17.50
2017-09-21T04:54:46.727Z,17.50
2017-09-21T04:57:14.334Z,17.25
2017-09-21T04:59:41.964Z,16.87
2017-09-21T05:02:09.522Z,16.67
2017-09-21T05:04:37.047Z,16.80
2017-09-21T05:07:04.590Z,17.23
2017-09-21T05:09:32.113Z,16.80
2017-09-21T05:11:59.645Z,18.55
2017-09-21T05:14:27.150Z,17.73
2017-09-21T05:16:54.704Z,17.33
2017-09-21T05:19:22.217Z,15.95
2017-09-21T05:21:49.717Z,16.70
2017-09-21T05:24:17.244Z,15.75
2017-09-21T05:26:45.147Z,15.95
2017-09-21T05:29:12.698Z,15.93
2017-09-21T05:31:40.228Z,16.52
2017-09-21T05:34:07.799Z,16.73
2017-09-21T05:36:35.390Z,19.00
2017-09-21T05:39:02.975Z,18.33
2017-09-21T05:41:30.577Z,18.30
2017-09-21T05:43:58.187Z,17.65
2017-09-21T05:46:25.777Z,17.37
2017-09-21T05:48:53.408Z,16.73
2017-09-21T05:51:20.961Z,16.35
2017-09-21T05:53:48.491Z,18.20
2017-09-21T05:56:16.410Z,15.65
2017-09-21T05:58:43.943Z,16.98
2017-09-21T06:01:11.521Z,17.58
2017-09-21T06:03:39.113Z,17.80
2017-09-21T06:06:06.710Z,17.10
2017-09-21T06:08:34.266Z,17.12
2017-09-21T06:11:02.200Z,15.50
2017-09-21T06:13:29.708Z,16.35
2017-09-21T06:15:57.211Z,15.75
2017-09-21T06:18:25.144Z,16.92
2017-09-21T06:20:52.654Z,16.62
2017-09-21T06:23:20.206Z,16.58
2017-09-21T06:25:48.732Z,16.90
2017-09-21T06:28:16.332Z,16.98
2017-09-21T06:30:43.850Z,16.98
2017-09-21T06:33:11.388Z,16.65
2017-09-21T06:35:38.934Z,16.08
2017-09-21T06:38:06.457Z,15.82
2017-09-21T06:40:34.005Z,15.50
2017-09-21T06:43:01.515Z,15.75
2017-09-21T06:45:29.149Z,15.27
2017-09-21T06:47:56.666Z,15.60
2017-09-21T06:50:24.216Z,15.65
2017-09-21T06:52:51.738Z,15.77
2017-09-21T06:55:19.255Z,16.30
2017-09-21T06:57:46.790Z,16.08
2017-09-21T07:00:14.711Z,15.05
2017-09-21T07:02:42.263Z,15.55
2017-09-21T07:05:09.815Z,15.38
2017-09-21T07:07:37.349Z,15.45
2017-09-21T07:10:04.884Z,13.27
2017-09-21T07:12:32.466Z,13.98
2017-09-21T07:15:00.378Z,14.43
2017-09-21T07:17:27.928Z,14.00
2017-09-21T07:19:55.521Z,13.60
2017-09-21T07:22:23.048Z,14.48
2017-09-21T07:24:51.031Z,12.80
2017-09-21T07:27:18.548Z,13.40
2017-09-21T07:29:46.499Z,12.55
2017-09-21T07:32:14.421Z,13.70
2017-09-21T07:34:41.960Z,12.80
2017-09-21T07:37:09.496Z,13.25
2017-09-21T07:39:37.047Z,11.63
2017-09-21T07:42:04.596Z,11.82
2017-09-21T07:44:32.156Z,10.68
2017-09-21T07:46:59.666Z,8.63
2017-09-21T07:49:27.190Z,8.93
2017-09-21T07:51:54.729Z,9.10
2017-09-21T07:54:22.362Z,8.75
2017-09-21T07:56:50.890Z,8.05
2017-09-21T07:59:18.465Z,7.85
2017-09-21T08:01:46.080Z,8.05
2017-09-21T08:04:13.640Z,6.47
2017-09-21T08:06:41.634Z,6.60
2017-09-21T08:09:09.983Z,7.13
2017-09-21T08:11:37.550Z,7.03
2017-09-21T08:14:05.099Z,6.43
2017-09-21T08:16:32.593Z,6.50
2017-09-21T08:19:01.013Z,5.70
2017-09-21T08:21:29.379Z,5.80
2017-09-21T08:23:57.121Z,6.90
2017-09-21T08:26:24.661Z,5.70
2017-09-21T08:28:52.209Z,6.30
2017-09-21T08:31:19.787Z,5.60
2017-09-21T08:33:47.373Z,5.80
2017-09-21T08:36:14.915Z,5.47
2017-09-21T08:38:42.447Z,5.23
2017-09-21T08:41:10.071Z,5.57
2017-09-21T08:43:38.023Z,5.67
2017-09-21T08:46:05.967Z,5.50
2017-09-21T08:48:33.504Z,5.63
2017-09-21T08:51:01.018Z,5.80
2017-09-21T08:53:28.539Z,6.20
2017-09-21T08:55:56.078Z,5.30
2017-09-21T08:58:23.987Z,5.90
2017-09-21T09:00:51.545Z,5.07
2017-09-21T09:03:19.046Z,5.30
2017-09-21T09:05:46.552Z,4.67
2017-09-21T09:08:14.474Z,4.10
2017-09-21T09:10:41.983Z,4.47
2017-09-21T09:13:09.503Z,3.40
2017-09-21T09:15:37.016Z,3.77
2017-09-21T09:18:04.546Z,4.80
2017-09-21T09:20:32.064Z,4.57
2017-09-21T09:23:00.419Z,4.20
2017-09-21T09:25:27.930Z,4.00
2017-09-21T09:27:55.862Z,4.37
2017-09-21T09:30:23.384Z,4.27
2017-09-21T09:32:50.875Z,4.07
2017-09-21T09:35:18.790Z,3.53
2017-09-21T09:37:46.296Z,4.47
2017-09-21T09:40:13.827Z,3.60
2017-09-21T09:42:41.347Z,3.77
2017-09-21T09:45:14.845Z,3.40
2017-09-21T09:47:42.342Z,3.97
2017-09-21T09:50:09.868Z,3.53
2017-09-21T09:52:37.387Z,2.80
2017-09-21T09:55:04.961Z,3.23
2017-09-21T09:57:32.477Z,3.07
2017-09-21T10:00:00.810Z,3.03
2017-09-21T10:02:28.333Z,3.03
2017-09-21T10:04:55.847Z,2.80
2017-09-21T10:07:23.374Z,2.87
2017-09-21T10:09:50.888Z,3.67
2017-09-21T10:12:18.409Z,2.53
2017-09-21T10:14:45.930Z,2.70
2017-09-21T10:17:13.446Z,2.67
2017-09-21T10:19:40.962Z,2.90
2017-09-21T10:22:08.901Z,2.20
2017-09-21T10:24:36.403Z,2.60
2017-09-21T10:27:03.902Z,2.50
2017-09-21T10:29:31.809Z,2.50
2017-09-21T10:31:59.383Z,2.80
2017-09-21T10:34:26.903Z,2.37
2017-09-21T10:36:54.406Z,2.47
2017-09-21T10:39:21.922Z,2.70
2017-09-21T10:41:49.427Z,3.03
2017-09-21T10:44:16.957Z,2.37
2017-09-21T10:46:44.466Z,2.83
2017-09-21T10:49:12.393Z,3.00
2017-09-21T10:51:39.905Z,3.27
2017-09-21T10:54:07.426Z,3.40
2017-09-21T10:56:34.966Z,2.53
2017-09-21T10:59:02.470Z,3.20
2017-09-21T11:01:30.013Z,2.50
2017-09-21T11:03:57.511Z,2.80
2017-09-21T11:06:25.036Z,2.47
2017-09-21T11:08:52.534Z,2.90
2017-09-21T11:11:20.055Z,2.70
2017-09-21T11:13:47.566Z,2.93
2017-09-21T11:16:15.075Z,3.20
2017-09-21T11:18:42.599Z,2.67
2017-09-21T11:21:11.086Z,2.80
2017-09-21T11:23:38.605Z,2.50
2017-09-21T11:26:06.155Z,2.50
2017-09-21T11:28:33.669Z,2.77
2017-09-21T11:31:01.198Z,2.47
2017-09-21T11:33:29.526Z,3.40
2017-09-21T11:35:57.448Z,2.90
2017-09-21T11:38:24.953Z,2.73
2017-09-21T11:40:52.475Z,2.63
2017-09-21T11:43:20.385Z,3.17
2017-09-21T11:45:47.917Z,2.50
2017-09-21T11:48:15.417Z,2.67
2017-09-21T11:50:42.951Z,2.40
2017-09-21T11:53:10.451Z,2.33
2017-09-21T11:55:37.977Z,2.43
2017-09-21T11:58:05.487Z,2.60
2017-09-21T12:00:33.034Z,2.70
2017-09-21T12:03:00.544Z,2.80
2017-09-21T12:05:28.050Z,2.40
2017-09-21T12:07:55.591Z,2.57
2017-09-21T12:10:23.104Z,3.50
2017-09-21T12:12:51.019Z,2.23
2017-09-21T12:15:18.533Z,2.23
2017-09-21T12:17:46.055Z,2.73
2017-09-21T12:20:13.957Z,2.60
2017-09-21T12:22:41.494Z,2.30
2017-09-21T12:25:09.009Z,2.60
2017-09-21T12:27:36.519Z,2.70
2017-09-21T12:30:04.046Z,2.80
2017-09-21T12:32:31.590Z,2.97
2017-09-21T12:34:59.110Z,2.80
2017-09-21T12:37:26.622Z,2.40
2017-09-21T12:39:54.147Z,2.90
2017-09-21T12:42:22.047Z,2.63
2017-09-21T12:44:49.595Z,2.67
2017-09-21T12:47:17.104Z,2.60
2017-09-21T12:49:44.611Z,2.63
2017-09-21T12:52:12.142Z,2.50
2017-09-21T12:54:39.668Z,2.17
2017-09-21T12:57:07.189Z,2.23
2017-09-21T12:59:34.720Z,2.17
2017-09-21T13:02:02.285Z,2.30
2017-09-21T13:04:29.802Z,3.10
2017-09-21T13:06:57.722Z,2.00
2017-09-21T13:09:25.230Z,2.30
2017-09-21T13:11:52.775Z,2.13
2017-09-21T13:14:20.302Z,1.90
2017-09-21T13:16:47.807Z,1.70
2017-09-21T13:19:15.357Z,2.27
2017-09-21T13:21:42.873Z,2.70
2017-09-21T13:24:10.397Z,1.70
2017-09-21T13:26:37.919Z,1.77
2017-09-21T13:29:05.463Z,1.50
2017-09-21T13:31:32.971Z,1.30
2017-09-21T13:34:00.518Z,1.80
2017-09-21T13:36:28.072Z,2.20
2017-09-21T13:38:55.680Z,2.00
2017-09-21T13:41:23.206Z,1.90
2017-09-21T13:43:50.730Z,1.80
2017-09-21T13:46:18.263Z,2.30
2017-09-21T13:48:45.768Z,1.77
2017-09-21T13:51:13.290Z,2.30
2017-09-21T13:53:40.798Z,2.30
2017-09-21T13:56:08.323Z,1.57
2017-09-21T13:58:36.224Z,2.17
2017-09-21T14:01:03.820Z,1.63
2017-09-21T14:03:31.730Z,1.27
2017-09-21T14:05:59.278Z,1.60
2017-09-21T14:08:26.787Z,1.30
2017-09-21T14:10:54.303Z,2.20
2017-09-21T14:13:22.226Z,1.40
2017-09-21T14:15:49.734Z,1.50
2017-09-21T14:18:17.273Z,1.40
2017-09-21T14:20:44.788Z,1.33
2017-09-21T14:23:12.710Z,1.43
2017-09-21T14:25:40.221Z,1.40
2017-09-21T14:28:07.746Z,1.73
2017-09-21T14:30:35.286Z,1.47
2017-09-21T14:33:02.825Z,1.43
2017-09-21T14:35:30.743Z,1.27
2017-09-21T14:37:58.250Z,1.70
2017-09-21T14:40:25.781Z,1.40
2017-09-21T14:42:53.297Z,1.40
2017-09-21T14:45:21.217Z,1.30
2017-09-21T14:47:48.722Z,1.50
2017-09-21T14:50:16.249Z,1.30
2017-09-21T14:52:44.185Z,1.20
2017-09-21T14:55:11.697Z,1.33
2017-09-21T14:57:39.200Z,1.30
2017-09-21T15:00:06.743Z,1.43
2017-09-21T15:02:34.239Z,1.70
2017-09-21T15:05:01.757Z,1.20
2017-09-21T15:07:29.310Z,1.17
2017-09-21T15:09:56.814Z,2.43
2017-09-21T15:12:24.333Z,3.30
2017-09-21T15:14:51.850Z,2.43
2017-09-21T15:17:19.365Z,2.53
2017-09-21T15:19:46.883Z,2.47
2017-09-21T15:22:14.436Z,2.30
2017-09-21T15:24:41.947Z,2.60
2017-09-21T15:27:09.453Z,2.63
2017-09-21T15:29:36.984Z,3.07
2017-09-21T15:32:04.495Z,2.40
2017-09-21T15:34:32.023Z,1.63
2017-09-21T15:36:59.530Z,2.80
2017-09-21T15:39:27.045Z,3.07
2017-09-21T15:41:54.565Z,4.50
2017-09-21T15:44:22.510Z,4.80
2017-09-21T15:46:50.410Z,4.67
2017-09-21T15:49:17.926Z,4.20
2017-09-21T15:51:45.458Z,3.70
2017-09-21T15:54:13.350Z,3.57
2017-09-21T15:56:40.864Z,3.60
2017-09-21T15:59:08.369Z,2.70
2017-09-21T16:01:35.918Z,4.00
2017-09-21T16:04:03.443Z,4.07
2017-09-21T16:06:30.965Z,3.40
2017-09-21T16:08:58.479Z,3.13
2017-09-21T16:11:26.003Z,3.40
2017-09-21T16:13:53.512Z,3.87
2017-09-21T16:16:21.017Z,4.90
2017-09-21T16:18:48.538Z,4.53
2017-09-21T16:21:16.042Z,4.47
2017-09-21T16:23:43.553Z,3.17
2017-09-21T16:26:11.091Z,3.50
2017-09-21T16:28:40.599Z,3.10
2017-09-21T16:31:08.126Z,2.80
2017-09-21T16:33:36.592Z,3.00
2017-09-21T16:36:05.032Z,2.87
2017-09-21T16:38:32.937Z,2.67
2017-09-21T16:41:00.466Z,2.40
2017-09-21T16:43:28.390Z,2.33
2017-09-21T16:45:56.310Z,3.20
2017-09-21T16:48:23.817Z,3.30
2017-09-21T16:50:53.245Z,2.70
2017-09-21T16:53:20.749Z,3.10
2017-09-21T16:55:48.328Z,2.33
2017-09-21T16:58:15.829Z,2.50
2017-09-21T17:00:43.348Z,2.53
2017-09-21T17:03:11.261Z,2.37
2017-09-21T17:05:38.784Z,3.10
2017-09-21T17:08:06.311Z,2.17
2017-09-21T17:10:33.823Z,2.10
2017-09-21T17:13:01.734Z,2.03
2017-09-21T17:15:29.874Z,2.00
2017-09-21T17:17:57.411Z,1.60
2017-09-21T17:20:24.907Z,2.10
2017-09-21T17:22:52.419Z,2.17
2017-09-21T17:25:19.977Z,2.27
2017-09-21T17:27:47.477Z,2.60
2017-09-21T17:30:15.037Z,2.50
2017-09-21T17:32:42.541Z,3.10
2017-09-21T17:35:10.493Z,2.60
2017-09-21T17:37:38.387Z,2.60
2017-09-21T17:40:05.964Z,2.83
2017-09-21T17:42:33.475Z,2.50
2017-09-21T17:45:01.018Z,2.43
2017-09-21T17:47:28.519Z,2.63
2017-09-21T17:49:56.457Z,2.60
2017-09-21T17:52:23.995Z,3.07
2017-09-21T17:54:51.780Z,3.57
2017-09-21T17:57:21.018Z,3.30
2017-09-21T17:59:48.640Z,2.83
2017-09-21T18:02:16.267Z,3.10
2017-09-21T18:04:43.765Z,3.23
2017-09-21T18:07:11.677Z,3.30
2017-09-21T18:09:39.191Z,3.40
2017-09-21T18:12:07.130Z,4.60
2017-09-21T18:14:35.527Z,4.30
2017-09-21T18:17:03.070Z,3.60
2017-09-21T18:19:30.614Z,3.87
2017-09-21T18:21:58.130Z,3.97
2017-09-21T18:24:26.059Z,3.60
2017-09-21T18:26:53.587Z,4.17
2017-09-21T18:29:21.114Z,4.10
2017-09-21T18:31:48.620Z,4.10
2017-09-21T18:34:16.544Z,4.00
2017-09-21T18:36:44.049Z,3.70
2017-09-21T18:39:11.631Z,3.47
2017-09-21T18:41:39.912Z,4.57
2017-09-21T18:44:07.870Z,3.90
2017-09-21T18:46:35.657Z,3.83
2017-09-21T18:49:07.307Z,4.60
2017-09-21T18:51:34.953Z,3.70
2017-09-21T18:54:03.566Z,4.70
2017-09-21T18:56:31.355Z,4.30
2017-09-21T18:58:58.958Z,4.53
2017-09-21T19:01:26.631Z,4.27
2017-09-21T19:03:54.210Z,4.70
2017-09-21T19:06:21.848Z,4.97
2017-09-21T19:08:49.488Z,5.13
2017-09-21T19:11:17.113Z,5.00
2017-09-21T19:13:44.765Z,4.87
2017-09-21T19:16:12.332Z,4.70
2017-09-21T19:18:39.962Z,5.10
2017-09-21T19:21:11.220Z,5.40
2017-09-21T19:23:41.069Z,5.10
2017-09-21T19:29:06.863Z,5.50
2017-09-21T19:31:35.248Z,5.80
2017-09-21T19:34:02.932Z,5.80
2017-09-21T19:36:30.642Z,5.63
2017-09-21T19:39:01.719Z,6.60
2017-09-21T19:41:32.170Z,6.73
2017-09-21T19:44:03.502Z,5.60
2017-09-21T19:46:31.188Z,6.07
2017-09-21T19:48:58.829Z,6.90
2017-09-21T19:51:26.430Z,6.10
2017-09-21T19:53:54.110Z,6.87
2017-09-21T19:56:21.759Z,6.30
2017-09-21T19:58:49.351Z,6.47
2017-09-21T20:01:16.988Z,6.73
2017-09-21T20:03:44.665Z,6.37
2017-09-21T20:06:16.183Z,5.63
2017-09-21T20:08:44.208Z,6.40
2017-09-21T20:11:11.902Z,6.40
2017-09-21T20:13:39.522Z,7.07
2017-09-21T20:16:07.161Z,7.40
2017-09-21T20:18:34.761Z,7.47
2017-09-21T20:21:02.458Z,7.60
2017-09-21T20:23:30.120Z,6.87
2017-09-21T20:25:57.841Z,7.50
2017-09-21T20:28:25.477Z,6.53
2017-09-21T20:30:53.089Z,7.43
2017-09-21T20:33:21.119Z,7.30
2017-09-21T20:35:48.872Z,6.77
2017-09-21T20:38:16.475Z,6.73
2017-09-21T20:40:44.089Z,6.97
2017-09-21T20:43:12.097Z,7.40
2017-09-21T20:45:39.699Z,7.37
2017-09-21T20:48:07.332Z,6.83
2017-09-21T20:50:34.993Z,6.90
2017-09-21T20:53:02.580Z,7.77
2017-09-21T20:55:30.635Z,7.80
2017-09-21T20:57:58.302Z,7.50
2017-09-21T21:00:25.916Z,7.30
2017-09-21T21:02:53.546Z,6.87
2017-09-21T21:05:21.229Z,7.77
2017-09-21T21:07:48.831Z,6.77
2017-09-21T21:10:26.695Z,8.03
2017-09-21T21:12:54.321Z,7.73
2017-09-21T21:15:23.792Z,7.40
2017-09-21T21:17:52.924Z,8.63
2017-09-21T21:20:20.586Z,7.83
2017-09-21T21:22:48.138Z,8.13
2017-09-21T21:25:15.892Z,8.75
2017-09-21T21:27:43.430Z,8.55
2017-09-21T21:30:11.062Z,7.85
2017-09-21T21:32:38.610Z,8.23
2017-09-21T21:35:06.121Z,8.27
2017-09-21T21:37:33.750Z,8.60
2017-09-21T21:40:01.279Z,7.93
2017-09-21T21:42:28.798Z,9.10
2017-09-21T21:44:56.331Z,8.07
2017-09-21T21:47:23.849Z,7.77
2017-09-21T21:49:51.776Z,8.50
2017-09-21T21:52:19.320Z,8.30
2017-09-21T21:54:46.882Z,9.07
2017-09-21T21:57:14.400Z,9.63
2017-09-21T21:59:41.918Z,9.43
2017-09-21T22:02:09.445Z,9.63
2017-09-21T22:04:37.032Z,9.43
2017-09-21T22:07:04.568Z,9.00
2017-09-21T22:09:32.086Z,9.38
2017-09-21T22:11:59.627Z,9.77
2017-09-21T22:14:27.139Z,9.35
2017-09-21T22:16:55.068Z,8.95
2017-09-21T22:19:22.580Z,8.90
2017-09-21T22:21:50.089Z,10.25
2017-09-21T22:24:18.021Z,9.20
2017-09-21T22:26:45.538Z,10.23
2017-09-21T22:29:13.075Z,10.20
2017-09-21T22:31:40.606Z,9.65
2017-09-21T22:34:08.146Z,9.40
2017-09-21T22:36:35.658Z,9.75
2017-09-21T22:39:03.587Z,10.85
2017-09-21T22:41:31.125Z,9.75
2017-09-21T22:43:58.642Z,10.23
2017-09-21T22:46:26.179Z,11.73
2017-09-21T22:48:53.691Z,9.80
2017-09-21T22:51:21.229Z,10.65
2017-09-21T22:53:49.187Z,10.80
2017-09-21T22:56:17.118Z,10.77
2017-09-21T22:58:44.642Z,12.05
2017-09-21T23:01:12.178Z,9.63
2017-09-21T23:03:39.695Z,11.07
2017-09-21T23:06:07.219Z,10.82
2017-09-21T23:08:34.772Z,10.15
2017-09-21T23:11:02.286Z,11.02
2017-09-21T23:13:29.816Z,11.50
2017-09-21T23:15:57.342Z,11.63
2017-09-21T23:18:24.875Z,11.18
2017-09-21T23:20:52.394Z,11.63
2017-09-21T23:23:19.920Z,11.38
2017-09-21T23:25:49.772Z,11.00
2017-09-21T23:28:17.307Z,12.00
2017-09-21T23:30:44.838Z,11.35
2017-09-21T23:33:12.343Z,11.10
2017-09-21T23:35:40.265Z,11.52
2017-09-21T23:38:07.773Z,12.35
2017-09-21T23:40:35.294Z,12.02
2017-09-21T23:43:03.194Z,10.95
2017-09-21T23:45:30.717Z,12.30
2017-09-21T23:47:58.235Z,10.20
2017-09-21T23:50:26.654Z,11.40
2017-09-21T23:52:54.187Z,11.35
2017-09-21T23:55:21.703Z,10.65
2017-09-21T23:57:49.239Z,11.43
